Time,TemperatureF,DewpointF,PressureIn,WindDirection,WindDirectionDegrees,WindSpeedMPH,WindSpeedGustMPH,Humidity,HourlyPrecipIn,Conditions,Clouds,dailyrainin,SoftwareType,DateUTC
2013-02-26 00:00:00,43.6,37.2,29.82,East,90,5.4,15.9,78,0.00,,,0.00,VWS V14.01,2013-02-26 05:00:00,
2013-02-26 00:05:00,43.5,36.7,29.82,SSE,158,6.3,15.9,77,0.00,,,0.00,VWS V14.01,2013-02-26 05:05:00,
2013-02-26 00:10:00,43.6,37.9,29.82,ESE,112,4.3,15.9,80,0.00,,,0.00,VWS V14.01,2013-02-26 05:10:00,
2013-02-26 00:15:00,44.3,37.3,29.82,ESE,112,3.1,4.3,76,0.00,,,0.00,VWS V14.01,2013-02-26 05:15:00,
2013-02-26 00:20:00,44.0,37.6,29.82,SSE,158,10.7,18.6,78,0.00,,,0.00,VWS V14.01,2013-02-26 05:20:00,
2013-02-26 00:25:00,43.8,37.7,29.82,SE,135,8.1,18.6,79,0.00,,,0.00,VWS V14.01,2013-02-26 05:25:00,
2013-02-26 00:30:00,43.8,37.4,29.79,South,180,8.1,18.6,78,0.00,,,0.00,VWS V14.01,2013-02-26 05:30:00,
2013-02-26 00:35:00,44.3,38.6,29.79,South,180,12.1,18.6,80,0.00,,,0.00,VWS V14.01,2013-02-26 05:35:00,
2013-02-26 00:40:00,44.7,39.2,29.79,SE,135,9.8,19.7,81,0.00,,,0.00,VWS V14.01,2013-02-26 05:40:00,
2013-02-26 00:45:00,44.7,38.9,29.79,South,180,6.3,19.7,80,0.00,,,0.00,VWS V14.01,2013-02-26 05:45:00,
2013-02-26 00:50:00,45.1,39.9,29.79,South,180,10.5,13.6,82,0.00,,,0.00,VWS V14.01,2013-02-26 05:50:00,
2013-02-26 00:55:00,45.2,39.1,29.79,South,180,12.5,22.4,79,0.00,,,0.00,VWS V14.01,2013-02-26 05:55:00,
2013-02-26 01:00:00,46.3,39.2,29.76,SE,135,8.7,12.3,76,0.00,,,0.00,VWS V14.01,2013-02-26 06:00:00,
2013-02-26 01:05:00,46.3,39.9,29.76,SSE,158,11.0,15.4,78,0.00,,,0.00,VWS V14.01,2013-02-26 06:05:00,
2013-02-26 01:10:00,46.3,39.5,29.76,SE,135,5.6,19.7,77,0.00,,,0.00,VWS V14.01,2013-02-26 06:10:00,
2013-02-26 01:15:00,46.5,39.4,29.79,SSE,158,17.2,17.2,76,0.00,,,0.00,VWS V14.01,2013-02-26 06:15:00,
2013-02-26 01:20:00,46.5,39.0,29.79,SSE,158,16.3,26.9,75,0.00,,,0.00,VWS V14.01,2013-02-26 06:20:00,
2013-02-26 01:25:00,46.5,39.7,29.79,SSE,158,19.7,26.9,77,0.00,,,0.00,VWS V14.01,2013-02-26 06:25:00,
2013-02-26 01:30:00,46.5,39.7,29.76,South,180,8.5,36.0,77,0.04,,,0.04,VWS V14.01,2013-02-26 06:30:00,
2013-02-26 01:35:00,46.2,38.7,29.76,SSE,158,8.7,36.0,75,0.04,,,0.04,VWS V14.01,2013-02-26 06:35:00,
2013-02-26 01:40:00,45.4,39.0,29.76,SSE,158,13.2,36.0,78,0.04,,,0.04,VWS V14.01,2013-02-26 06:40:00,
2013-02-26 01:45:00,45.2,38.5,29.79,SSE,158,15.9,36.0,77,0.04,,,0.04,VWS V14.01,2013-02-26 06:45:00,
2013-02-26 01:50:00,45.1,37.6,29.79,SSE,158,6.3,17.5,75,0.04,,,0.04,VWS V14.01,2013-02-26 06:50:00,
2013-02-26 01:55:00,44.7,38.6,29.79,SSE,158,15.4,17.5,79,0.04,,,0.04,VWS V14.01,2013-02-26 06:55:00,
2013-02-26 02:00:00,44.9,38.1,29.76,SW,225,15.4,22.6,77,0.08,,,0.08,VWS V14.01,2013-02-26 07:00:00,
2013-02-26 02:05:00,45.2,37.8,29.76,South,180,10.1,21.5,75,0.08,,,0.08,VWS V14.01,2013-02-26 07:05:00,
2013-02-26 02:10:00,45.2,37.8,29.76,SE,135,13.4,21.5,75,0.08,,,0.08,VWS V14.01,2013-02-26 07:10:00,
2013-02-26 02:15:00,45.2,38.2,29.76,SSE,158,10.5,21.5,76,0.08,,,0.08,VWS V14.01,2013-02-26 07:15:00,
2013-02-26 02:20:00,45.6,38.2,29.76,SSW,202,10.3,21.5,75,0.12,,,0.12,VWS V14.01,2013-02-26 07:20:00,
2013-02-26 02:25:00,45.6,37.8,29.76,SSE,158,15.4,21.5,74,0.12,,,0.12,VWS V14.01,2013-02-26 07:25:00,
2013-02-26 02:30:00,45.2,38.5,29.79,SSE,158,13.6,21.5,77,0.12,,,0.12,VWS V14.01,2013-02-26 07:30:00,
2013-02-26 02:35:00,45.1,38.3,29.79,South,180,8.7,15.7,77,0.12,,,0.12,VWS V14.01,2013-02-26 07:35:00,
2013-02-26 02:40:00,45.6,37.5,29.79,SSE,158,7.4,20.6,73,0.16,,,0.16,VWS V14.01,2013-02-26 07:40:00,
2013-02-26 02:45:00,45.1,37.6,29.76,South,180,17.0,20.6,75,0.16,,,0.16,VWS V14.01,2013-02-26 07:45:00,
2013-02-26 02:50:00,45.1,38.0,29.76,SE,135,8.1,18.8,76,0.12,,,0.16,VWS V14.01,2013-02-26 07:50:00,
2013-02-26 02:55:00,44.9,37.8,29.76,South,180,10.7,27.7,76,0.12,,,0.16,VWS V14.01,2013-02-26 07:55:00,
2013-02-26 03:00:00,44.5,37.8,29.74,SSE,158,14.8,27.7,77,0.16,,,0.20,VWS V14.01,2013-02-26 08:00:00,
2013-02-26 03:05:00,44.5,38.1,29.74,South,180,11.0,15.2,78,0.12,,,0.20,VWS V14.01,2013-02-26 08:05:00,
2013-02-26 03:10:00,45.1,37.3,29.74,SSW,202,14.3,17.2,74,0.12,,,0.20,VWS V14.01,2013-02-26 08:10:00,
2013-02-26 03:15:00,44.9,37.5,29.74,SSW,202,11.0,21.5,75,0.12,,,0.20,VWS V14.01,2013-02-26 08:15:00,
2013-02-26 03:20:00,45.1,37.6,29.74,SSE,158,11.0,17.7,75,0.08,,,0.20,VWS V14.01,2013-02-26 08:20:00,
2013-02-26 03:25:00,45.8,38.0,29.74,SSE,158,26.6,26.6,74,0.08,,,0.20,VWS V14.01,2013-02-26 08:25:00,
2013-02-26 03:30:00,45.2,38.5,29.74,ESE,112,10.5,28.4,77,0.08,,,0.20,VWS V14.01,2013-02-26 08:30:00,
2013-02-26 03:35:00,45.1,38.3,29.74,SSE,158,12.3,15.2,77,0.08,,,0.20,VWS V14.01,2013-02-26 08:35:00,
2013-02-26 03:40:00,44.9,38.1,29.74,SE,135,10.1,20.8,77,0.13,,,0.25,VWS V14.01,2013-02-26 08:40:00,
2013-02-26 03:45:00,44.7,38.0,29.74,SSE,158,10.3,20.8,77,0.13,,,0.25,VWS V14.01,2013-02-26 08:45:00,
2013-02-26 03:50:00,44.5,37.1,29.74,South,180,8.1,21.5,75,0.09,,,0.25,VWS V14.01,2013-02-26 08:50:00,
2013-02-26 03:55:00,44.5,36.8,29.74,SSE,158,15.4,22.4,74,0.09,,,0.25,VWS V14.01,2013-02-26 08:55:00,
2013-02-26 04:00:00,44.3,36.6,29.74,SSE,158,12.3,22.4,74,0.09,,,0.25,VWS V14.01,2013-02-26 09:00:00,
2013-02-26 04:05:00,44.5,37.1,29.74,SE,135,7.8,15.7,75,0.05,,,0.25,VWS V14.01,2013-02-26 09:05:00,
2013-02-26 04:10:00,44.0,36.2,29.74,SE,135,10.7,17.7,74,0.09,,,0.29,VWS V14.01,2013-02-26 09:10:00,
2013-02-26 04:15:00,43.6,36.9,29.74,SSE,158,13.0,17.7,77,0.09,,,0.29,VWS V14.01,2013-02-26 09:15:00,
2013-02-26 04:20:00,43.6,36.9,29.74,SSE,158,7.8,14.5,77,0.09,,,0.29,VWS V14.01,2013-02-26 09:20:00,
2013-02-26 04:25:00,43.8,36.4,29.74,South,180,17.7,17.7,75,0.09,,,0.29,VWS V14.01,2013-02-26 09:25:00,
2013-02-26 04:30:00,43.8,37.1,29.74,SE,135,8.1,17.7,77,0.09,,,0.29,VWS V14.01,2013-02-26 09:30:00,
2013-02-26 04:35:00,43.8,37.7,29.74,SSE,158,5.6,9.4,79,0.09,,,0.29,VWS V14.01,2013-02-26 09:35:00,
2013-02-26 04:40:00,43.8,38.1,29.74,SE,135,9.8,11.9,80,0.13,,,0.33,VWS V14.01,2013-02-26 09:40:00,
2013-02-26 04:45:00,43.8,38.1,29.71,ESE,112,8.7,19.9,80,0.13,,,0.33,VWS V14.01,2013-02-26 09:45:00,
2013-02-26 04:50:00,44.2,37.4,29.71,ESE,112,3.8,13.2,77,0.08,,,0.33,VWS V14.01,2013-02-26 09:50:00,
2013-02-26 04:54:00,44.0,37.9,29.71,SSE,158,5.6,13.2,79,0.08,,,0.33,VWS V14.01,2013-02-26 09:54:00,
2013-02-26 04:59:00,43.6,38.2,29.68,South,180,14.5,20.4,81,0.12,,,0.37,VWS V14.01,2013-02-26 09:59:00,
2013-02-26 05:00:00,44.2,36.8,29.68,ENE,68,16.6,20.4,75,0.12,,,0.37,VWS V14.01,2013-02-26 10:00:00,
2013-02-26 05:04:00,44.0,36.2,29.68,SSE,158,19.7,23.5,74,0.12,,,0.37,VWS V14.01,2013-02-26 10:04:00,
2013-02-26 05:09:00,43.8,38.1,29.68,South,180,7.6,23.5,80,0.12,,,0.37,VWS V14.01,2013-02-26 10:09:00,
2013-02-26 05:14:00,44.3,38.3,29.68,ENE,68,4.7,23.5,79,0.16,,,0.41,VWS V14.01,2013-02-26 10:14:00,
2013-02-26 05:15:00,44.3,37.9,29.68,East,90,5.4,23.5,78,0.16,,,0.41,VWS V14.01,2013-02-26 10:15:00,
2013-02-26 05:19:00,44.9,37.8,29.68,SSW,202,4.0,13.0,76,0.12,,,0.41,VWS V14.01,2013-02-26 10:19:00,
2013-02-26 05:24:00,45.2,38.2,29.68,SE,135,10.1,14.5,76,0.12,,,0.41,VWS V14.01,2013-02-26 10:24:00,
2013-02-26 05:29:00,45.2,37.5,29.68,SSE,158,8.5,21.9,74,0.17,,,0.46,VWS V14.01,2013-02-26 10:29:00,
2013-02-26 05:30:00,45.2,37.5,29.68,SSE,158,8.5,21.9,74,0.17,,,0.46,VWS V14.01,2013-02-26 10:30:00,
2013-02-26 05:34:00,44.9,37.1,29.68,SW,225,5.4,17.0,74,0.17,,,0.46,VWS V14.01,2013-02-26 10:34:00,
2013-02-26 05:39:00,45.4,38.0,29.68,South,180,8.7,17.0,75,0.20,,,0.49,VWS V14.01,2013-02-26 10:39:00,
2013-02-26 05:44:00,45.4,38.0,29.62,ESE,112,9.0,23.9,75,0.25,,,0.54,VWS V14.01,2013-02-26 10:44:00,
2013-02-26 05:45:00,45.4,38.0,29.62,ESE,112,9.0,23.9,75,0.25,,,0.54,VWS V14.01,2013-02-26 10:45:00,
2013-02-26 05:49:00,45.8,38.3,29.62,South,180,5.6,21.9,75,0.21,,,0.54,VWS V14.01,2013-02-26 10:49:00,
2013-02-26 05:54:00,45.8,36.9,29.62,SSE,158,17.0,22.6,71,0.21,,,0.54,VWS V14.01,2013-02-26 10:54:00,
2013-02-26 05:59:00,45.8,37.3,29.65,South,180,5.6,22.6,72,0.21,,,0.54,VWS V14.01,2013-02-26 10:59:00,
2013-02-26 06:00:00,45.8,37.3,29.65,South,180,5.6,22.6,72,0.21,,,0.54,VWS V14.01,2013-02-26 11:00:00,
2013-02-26 06:04:00,46.2,38.3,29.65,ESE,112,12.5,22.4,74,0.17,,,0.54,VWS V14.01,2013-02-26 11:04:00,
2013-02-26 06:09:00,46.0,38.5,29.65,South,180,12.3,26.6,75,0.17,,,0.54,VWS V14.01,2013-02-26 11:09:00,
2013-02-26 06:14:00,46.2,38.7,29.68,South,180,10.1,26.6,75,0.21,,,0.58,VWS V14.01,2013-02-26 11:14:00,
2013-02-26 06:15:00,46.2,38.7,29.68,SSW,202,15.2,26.6,75,0.21,,,0.58,VWS V14.01,2013-02-26 11:15:00,
2013-02-26 06:19:00,46.2,39.3,29.68,SSE,158,8.1,15.2,77,0.17,,,0.58,VWS V14.01,2013-02-26 11:19:00,
2013-02-26 06:24:00,46.2,39.3,29.68,South,180,6.5,17.2,77,0.21,,,0.62,VWS V14.01,2013-02-26 11:24:00,
2013-02-26 06:29:00,46.3,38.5,29.62,SSE,158,15.2,17.2,74,0.21,,,0.62,VWS V14.01,2013-02-26 11:29:00,
2013-02-26 06:30:00,46.3,38.5,29.62,South,180,6.3,17.2,74,0.21,,,0.62,VWS V14.01,2013-02-26 11:30:00,
2013-02-26 06:34:00,46.3,38.5,29.62,SSW,202,15.4,22.2,74,0.16,,,0.62,VWS V14.01,2013-02-26 11:34:00,
2013-02-26 06:39:00,46.2,39.0,29.62,South,180,13.2,22.2,76,0.20,,,0.66,VWS V14.01,2013-02-26 11:39:00,
2013-02-26 06:44:00,46.2,39.0,29.62,SSE,158,8.5,27.1,76,0.20,,,0.66,VWS V14.01,2013-02-26 11:44:00,
2013-02-26 06:45:00,46.2,39.0,29.62,SSE,158,16.3,27.1,76,0.20,,,0.66,VWS V14.01,2013-02-26 11:45:00,
2013-02-26 06:49:00,46.2,38.3,29.62,SSE,158,9.4,23.9,74,0.12,,,0.66,VWS V14.01,2013-02-26 11:49:00,
2013-02-26 06:54:00,46.2,38.0,29.62,SE,135,12.5,24.6,73,0.12,,,0.66,VWS V14.01,2013-02-26 11:54:00,
2013-02-26 06:59:00,46.0,37.8,29.62,ESE,112,13.0,27.7,73,0.16,,,0.70,VWS V14.01,2013-02-26 11:59:00,
2013-02-26 07:00:00,46.0,37.8,29.62,SSE,158,23.0,27.7,73,0.16,,,0.70,VWS V14.01,2013-02-26 12:00:00,
2013-02-26 07:04:00,45.4,38.3,29.62,SSW,202,12.3,23.0,76,0.16,,,0.70,VWS V14.01,2013-02-26 12:04:00,
2013-02-26 07:09:00,46.0,38.2,29.62,SSE,158,17.5,24.4,74,0.16,,,0.70,VWS V14.01,2013-02-26 12:09:00,
2013-02-26 07:14:00,45.4,38.3,29.59,SSE,158,10.1,24.4,76,0.16,,,0.70,VWS V14.01,2013-02-26 12:14:00,
2013-02-26 07:15:00,45.4,38.3,29.59,SSE,158,10.1,24.4,76,0.16,,,0.70,VWS V14.01,2013-02-26 12:15:00,
2013-02-26 07:19:00,45.6,39.2,29.59,South,180,5.4,23.7,78,0.12,,,0.70,VWS V14.01,2013-02-26 12:19:00,
2013-02-26 07:24:00,45.8,38.0,29.59,South,180,7.4,23.7,74,0.12,,,0.70,VWS V14.01,2013-02-26 12:24:00,
2013-02-26 07:29:00,45.8,38.0,29.62,SSE,158,15.9,24.4,74,0.12,,,0.70,VWS V14.01,2013-02-26 12:29:00,
2013-02-26 07:30:00,45.8,38.0,29.62,South,180,10.7,24.4,74,0.12,,,0.70,VWS V14.01,2013-02-26 12:30:00,
2013-02-26 07:34:00,45.8,38.3,29.62,SE,135,14.8,19.2,75,0.12,,,0.74,VWS V14.01,2013-02-26 12:34:00,
2013-02-26 07:39:00,45.6,38.2,29.62,ESE,112,10.7,19.2,75,0.12,,,0.74,VWS V14.01,2013-02-26 12:39:00,
2013-02-26 07:44:00,45.8,37.6,29.62,South,180,8.5,19.2,73,0.12,,,0.74,VWS V14.01,2013-02-26 12:44:00,
2013-02-26 07:45:00,45.8,37.6,29.62,SE,135,15.4,19.2,73,0.12,,,0.74,VWS V14.01,2013-02-26 12:45:00,
2013-02-26 07:49:00,46.0,37.5,29.62,South,180,10.1,29.3,72,0.08,,,0.74,VWS V14.01,2013-02-26 12:49:00,
2013-02-26 07:54:00,45.8,37.3,29.62,SSW,202,10.5,29.3,72,0.08,,,0.74,VWS V14.01,2013-02-26 12:54:00,
2013-02-26 07:59:00,45.4,37.6,29.62,SE,135,8.5,29.3,74,0.08,,,0.74,VWS V14.01,2013-02-26 12:59:00,
2013-02-26 08:00:00,45.4,37.6,29.62,SSW,202,10.1,29.3,74,0.08,,,0.74,VWS V14.01,2013-02-26 13:00:00,
2013-02-26 08:04:00,45.4,37.3,29.62,South,180,5.4,23.3,73,0.04,,,0.74,VWS V14.01,2013-02-26 13:04:00,
2013-02-26 08:09:00,45.6,37.5,29.62,SSW,202,10.3,23.3,73,0.04,,,0.74,VWS V14.01,2013-02-26 13:09:00,
2013-02-26 08:14:00,45.6,36.8,29.62,SE,135,10.5,23.7,71,0.04,,,0.74,VWS V14.01,2013-02-26 13:14:00,
2013-02-26 08:15:00,45.6,36.8,29.62,SSW,202,19.7,23.7,71,0.04,,,0.74,VWS V14.01,2013-02-26 13:15:00,
2013-02-26 08:19:00,45.4,37.0,29.62,SE,135,12.3,26.6,72,0.04,,,0.74,VWS V14.01,2013-02-26 13:19:00,
2013-02-26 08:24:00,45.2,37.1,29.62,SSW,202,11.2,28.4,73,0.04,,,0.74,VWS V14.01,2013-02-26 13:24:00,
2013-02-26 08:29:00,45.2,37.5,29.59,SSE,158,10.7,28.4,74,0.04,,,0.74,VWS V14.01,2013-02-26 13:29:00,
2013-02-26 08:30:00,45.2,37.5,29.59,SE,135,23.9,28.4,74,0.04,,,0.74,VWS V14.01,2013-02-26 13:30:00,
2013-02-26 08:34:00,45.2,38.2,29.59,SSE,158,19.7,23.9,76,0.04,,,0.74,VWS V14.01,2013-02-26 13:34:00,
2013-02-26 08:39:00,45.4,37.6,29.59,SSW,202,13.0,24.4,74,0.04,,,0.74,VWS V14.01,2013-02-26 13:39:00,
2013-02-26 08:44:00,45.8,36.9,29.59,SSE,158,17.7,27.3,71,0.04,,,0.74,VWS V14.01,2013-02-26 13:44:00,
2013-02-26 08:45:00,45.8,36.9,29.59,SSE,158,7.6,27.3,71,0.04,,,0.74,VWS V14.01,2013-02-26 13:45:00,
2013-02-26 08:49:00,46.5,37.3,29.59,South,180,22.2,29.5,70,0.00,,,0.74,VWS V14.01,2013-02-26 13:49:00,
2013-02-26 08:54:00,46.5,36.5,29.59,SSE,158,11.2,29.5,68,0.00,,,0.74,VWS V14.01,2013-02-26 13:54:00,
2013-02-26 08:59:00,46.0,37.5,29.56,SSW,202,13.2,29.5,72,0.00,,,0.74,VWS V14.01,2013-02-26 13:59:00,
2013-02-26 09:00:00,46.0,37.5,29.56,SSE,158,14.5,29.5,72,0.00,,,0.74,VWS V14.01,2013-02-26 14:00:00,
2013-02-26 09:04:00,46.0,38.2,29.56,SE,135,15.4,28.4,74,0.00,,,0.74,VWS V14.01,2013-02-26 14:04:00,
2013-02-26 09:09:00,45.8,38.0,29.56,SE,135,13.4,28.4,74,0.00,,,0.74,VWS V14.01,2013-02-26 14:09:00,
2013-02-26 09:14:00,45.4,38.0,29.56,SSE,158,17.2,28.4,75,0.00,,,0.74,VWS V14.01,2013-02-26 14:14:00,
2013-02-26 09:15:00,45.4,38.0,29.56,South,180,21.3,28.4,75,0.00,,,0.74,VWS V14.01,2013-02-26 14:15:00,
2013-02-26 09:19:00,45.4,39.0,29.56,East,90,17.7,22.4,78,0.00,,,0.74,VWS V14.01,2013-02-26 14:19:00,
2013-02-26 09:24:00,45.4,39.3,29.56,South,180,8.7,22.8,79,0.00,,,0.74,VWS V14.01,2013-02-26 14:24:00,
2013-02-26 09:29:00,45.6,39.8,29.56,ESE,112,11.0,30.7,80,0.00,,,0.74,VWS V14.01,2013-02-26 14:29:00,
2013-02-26 09:30:00,45.6,39.8,29.56,SE,135,19.2,30.7,80,0.00,,,0.74,VWS V14.01,2013-02-26 14:30:00,
2013-02-26 09:34:00,45.4,39.0,29.56,SE,135,15.2,19.2,78,0.00,,,0.74,VWS V14.01,2013-02-26 14:34:00,
2013-02-26 09:39:00,45.8,38.3,29.56,SSE,158,7.8,28.0,75,0.00,,,0.74,VWS V14.01,2013-02-26 14:39:00,
2013-02-26 09:44:00,46.5,38.7,29.56,South,180,10.5,28.0,74,0.00,,,0.74,VWS V14.01,2013-02-26 14:44:00,
2013-02-26 09:45:00,46.5,38.7,29.56,South,180,10.5,28.0,74,0.00,,,0.74,VWS V14.01,2013-02-26 14:45:00,
2013-02-26 09:49:00,46.5,38.7,29.56,South,180,7.6,24.6,74,0.00,,,0.74,VWS V14.01,2013-02-26 14:49:00,
2013-02-26 09:54:00,46.7,39.2,29.56,ESE,112,12.3,24.6,75,0.00,,,0.74,VWS V14.01,2013-02-26 14:54:00,
2013-02-26 09:59:00,47.0,39.5,29.62,SSE,158,7.4,24.6,75,0.00,,,0.74,VWS V14.01,2013-02-26 14:59:00,
2013-02-26 10:00:00,47.0,39.5,29.62,SSE,158,6.3,24.6,75,0.00,,,0.74,VWS V14.01,2013-02-26 15:00:00,
2013-02-26 10:04:00,46.7,39.2,29.62,SE,135,8.7,13.6,75,0.00,,,0.74,VWS V14.01,2013-02-26 15:04:00,
2013-02-26 10:09:00,46.5,39.0,29.62,South,180,6.3,15.2,75,0.00,,,0.74,VWS V14.01,2013-02-26 15:09:00,
2013-02-26 10:14:00,46.7,41.2,29.62,SSE,158,6.5,15.2,81,0.00,,,0.74,VWS V14.01,2013-02-26 15:14:00,
2013-02-26 10:15:00,46.7,41.2,29.62,SSE,158,4.7,15.2,81,0.00,,,0.74,VWS V14.01,2013-02-26 15:15:00,
2013-02-26 10:19:00,46.7,40.2,29.62,SSE,158,6.0,11.9,78,0.00,,,0.74,VWS V14.01,2013-02-26 15:19:00,
2013-02-26 10:24:00,46.9,41.7,29.62,South,180,6.3,11.9,82,0.00,,,0.74,VWS V14.01,2013-02-26 15:24:00,
2013-02-26 10:29:00,47.2,40.4,29.59,East,90,6.7,19.5,77,0.00,,,0.74,VWS V14.01,2013-02-26 15:29:00,
2013-02-26 10:30:00,48.5,38.8,29.59,SE,135,3.8,21.9,69,0.00,,,0.74,VWS V14.01,2013-02-26 15:30:00,
2013-02-26 10:34:00,47.2,39.4,29.59,SE,135,9.8,19.5,74,0.00,,,0.74,VWS V14.01,2013-02-26 15:34:00,
2013-02-26 10:39:00,47.8,38.1,29.59,SE,135,10.3,19.5,69,0.00,,,0.74,VWS V14.01,2013-02-26 15:39:00,
2013-02-26 10:44:00,48.0,39.0,29.59,SSE,158,5.8,19.5,71,0.00,,,0.74,VWS V14.01,2013-02-26 15:44:00,
2013-02-26 10:45:00,48.0,39.0,29.59,SE,135,6.3,19.5,71,0.00,,,0.74,VWS V14.01,2013-02-26 15:45:00,
2013-02-26 10:49:00,48.0,39.0,29.59,East,90,6.5,12.1,71,0.00,,,0.74,VWS V14.01,2013-02-26 15:49:00,
2013-02-26 10:54:00,48.3,39.0,29.59,SSE,158,10.5,13.2,70,0.00,,,0.74,VWS V14.01,2013-02-26 15:54:00,
2013-02-26 10:59:00,49.0,38.9,29.56,ESE,112,6.7,17.7,68,0.00,,,0.74,VWS V14.01,2013-02-26 15:59:00,
2013-02-26 11:00:00,49.0,38.9,29.56,ESE,112,6.7,17.7,68,0.00,,,0.74,VWS V14.01,2013-02-26 16:00:00,
2013-02-26 11:04:00,49.4,39.3,29.56,SSE,158,8.1,21.0,68,0.00,,,0.74,VWS V14.01,2013-02-26 16:04:00,
2013-02-26 11:09:00,49.6,39.5,29.56,South,180,9.8,21.0,68,0.00,,,0.74,VWS V14.01,2013-02-26 16:09:00,
2013-02-26 11:14:00,49.8,39.6,29.56,South,180,13.0,23.7,68,0.00,,,0.74,VWS V14.01,2013-02-26 16:14:00,
2013-02-26 11:15:00,49.8,39.6,29.56,SSE,158,21.9,23.7,68,0.00,,,0.74,VWS V14.01,2013-02-26 16:15:00,
2013-02-26 11:19:00,49.8,39.6,29.56,SE,135,5.6,21.9,68,0.00,,,0.74,VWS V14.01,2013-02-26 16:19:00,
2013-02-26 11:24:00,48.8,39.2,29.56,SE,135,7.4,21.9,69,0.00,,,0.74,VWS V14.01,2013-02-26 16:24:00,
2013-02-26 11:29:00,48.5,38.8,29.59,SE,135,3.8,21.9,69,0.00,,,0.74,VWS V14.01,2013-02-26 16:29:00,
2013-02-26 11:30:00,48.5,38.8,29.59,SE,135,3.8,21.9,69,0.00,,,0.74,VWS V14.01,2013-02-26 16:30:00,
2013-02-26 11:34:00,48.7,39.0,29.59,SE,135,5.6,12.1,69,0.00,,,0.74,VWS V14.01,2013-02-26 16:34:00,
2013-02-26 11:39:00,48.7,38.6,29.59,East,90,5.6,12.1,68,0.00,,,0.74,VWS V14.01,2013-02-26 16:39:00,
2013-02-26 11:44:00,49.8,40.0,29.59,South,180,6.7,12.1,69,0.00,,,0.74,VWS V14.01,2013-02-26 16:44:00,
2013-02-26 11:45:00,49.8,40.0,29.59,South,180,6.7,12.1,69,0.00,,,0.74,VWS V14.01,2013-02-26 16:45:00,
2013-02-26 11:49:00,49.2,38.7,29.59,South,180,3.1,10.5,67,0.00,,,0.74,VWS V14.01,2013-02-26 16:49:00,
2013-02-26 11:54:00,49.4,39.3,29.59,SSE,158,9.6,15.7,68,0.00,,,0.74,VWS V14.01,2013-02-26 16:54:00,
2013-02-26 11:59:00,49.8,40.0,29.59,SSE,158,13.6,15.7,69,0.00,,,0.74,VWS V14.01,2013-02-26 16:59:00,
2013-02-26 12:00:00,49.8,40.0,29.59,SSE,158,9.6,15.7,69,0.00,,,0.74,VWS V14.01,2013-02-26 17:00:00,
2013-02-26 12:04:00,49.4,39.3,29.59,SSE,158,8.1,13.0,68,0.00,,,0.74,VWS V14.01,2013-02-26 17:04:00,
2013-02-26 12:09:00,49.9,39.8,29.59,South,180,7.2,13.0,68,0.00,,,0.74,VWS V14.01,2013-02-26 17:09:00,
2013-02-26 12:14:00,49.9,39.8,29.59,South,180,15.4,15.4,68,0.00,,,0.74,VWS V14.01,2013-02-26 17:14:00,
2013-02-26 12:15:00,52.5,40.2,29.56,South,180,6.5,19.5,63,0.00,,,0.74,VWS V14.01,2013-02-26 17:15:00,
2013-02-26 12:19:00,50.8,39.1,29.59,South,180,12.5,15.4,64,0.00,,,0.74,VWS V14.01,2013-02-26 17:19:00,
2013-02-26 12:24:00,51.5,39.8,29.59,South,180,14.3,21.5,64,0.00,,,0.74,VWS V14.01,2013-02-26 17:24:00,
2013-02-26 12:29:00,51.0,39.3,29.56,East,90,10.3,21.5,64,0.00,,,0.74,VWS V14.01,2013-02-26 17:29:00,
2013-02-26 12:30:00,51.0,39.3,29.56,South,180,6.3,21.5,64,0.00,,,0.74,VWS V14.01,2013-02-26 17:30:00,
2013-02-26 12:34:00,51.2,39.5,29.56,SSW,202,4.7,15.9,64,0.00,,,0.74,VWS V14.01,2013-02-26 17:34:00,
2013-02-26 12:39:00,50.8,39.5,29.56,SSE,158,7.2,15.9,65,0.00,,,0.74,VWS V14.01,2013-02-26 17:39:00,
2013-02-26 12:44:00,51.2,39.8,29.59,SE,135,4.3,15.9,65,0.00,,,0.74,VWS V14.01,2013-02-26 17:44:00,
2013-02-26 12:49:00,51.4,39.6,29.59,South,180,3.4,15.9,64,0.00,,,0.74,VWS V14.01,2013-02-26 17:49:00,
2013-02-26 12:54:00,51.2,39.5,29.59,ESE,112,2.7,15.9,64,0.00,,,0.74,VWS V14.01,2013-02-26 17:54:00,
2013-02-26 12:59:00,51.5,40.2,29.56,SSE,158,6.0,15.9,65,0.00,,,0.74,VWS V14.01,2013-02-26 17:59:00,
2013-02-26 13:00:00,51.5,40.2,29.56,NNE,22,4.9,15.9,65,0.00,,,0.74,VWS V14.01,2013-02-26 18:00:00,
2013-02-26 13:04:00,51.5,39.8,29.56,SSE,158,12.8,12.8,64,0.00,,,0.74,VWS V14.01,2013-02-26 18:04:00,
2013-02-26 13:09:00,52.3,40.5,29.56,SSE,158,7.6,12.8,64,0.00,,,0.74,VWS V14.01,2013-02-26 18:09:00,
2013-02-26 13:14:00,52.5,40.2,29.56,South,180,6.5,19.5,63,0.00,,,0.74,VWS V14.01,2013-02-26 18:14:00,
2013-02-26 13:15:00,52.5,40.2,29.56,South,180,6.5,19.5,63,0.00,,,0.74,VWS V14.01,2013-02-26 18:15:00,
2013-02-26 13:19:00,52.3,40.1,29.56,SE,135,14.1,20.8,63,0.00,,,0.74,VWS V14.01,2013-02-26 18:19:00,
2013-02-26 13:24:00,52.3,40.9,29.56,ESE,112,9.8,20.8,65,0.00,,,0.74,VWS V14.01,2013-02-26 18:24:00,
2013-02-26 13:29:00,51.7,39.6,29.56,WSW,248,3.8,20.8,63,0.00,,,0.74,VWS V14.01,2013-02-26 18:29:00,
2013-02-26 13:30:00,51.5,39.4,29.56,South,180,5.8,20.8,63,0.00,,,0.74,VWS V14.01,2013-02-26 18:30:00,
2013-02-26 13:34:00,51.4,39.2,29.56,East,90,6.3,17.5,63,0.00,,,0.74,VWS V14.01,2013-02-26 18:34:00,
2013-02-26 13:39:00,51.0,38.5,29.56,WNW,292,4.3,17.5,62,0.00,,,0.74,VWS V14.01,2013-02-26 18:39:00,
2013-02-26 13:44:00,51.0,38.5,29.56,South,180,11.0,17.5,62,0.00,,,0.74,VWS V14.01,2013-02-26 18:44:00,
2013-02-26 13:45:00,47.2,37.6,29.62,SSW,202,4.0,9.4,69,0.00,,,0.74,VWS V14.01,2013-02-26 18:45:00,
2013-02-26 13:49:00,51.0,38.9,29.56,SSE,158,10.5,17.5,63,0.00,,,0.74,VWS V14.01,2013-02-26 18:49:00,
2013-02-26 13:54:00,50.5,38.8,29.56,South,180,6.3,17.5,64,0.00,,,0.74,VWS V14.01,2013-02-26 18:54:00,
2013-02-26 13:59:00,50.8,39.5,29.56,SSW,202,5.4,17.5,65,0.00,,,0.74,VWS V14.01,2013-02-26 18:59:00,
2013-02-26 14:00:00,50.8,39.1,29.56,SSE,158,9.4,17.5,64,0.00,,,0.74,VWS V14.01,2013-02-26 19:00:00,
2013-02-26 14:04:00,50.5,38.8,29.56,SSW,202,3.1,9.4,64,0.00,,,0.74,VWS V14.01,2013-02-26 19:04:00,
2013-02-26 14:09:00,50.1,38.4,29.56,NE,45,3.1,9.6,64,0.00,,,0.74,VWS V14.01,2013-02-26 19:09:00,
2013-02-26 14:14:00,49.6,37.9,29.59,WSW,248,4.9,10.5,64,0.00,,,0.74,VWS V14.01,2013-02-26 19:14:00,
2013-02-26 14:15:00,49.6,37.9,29.59,SSW,202,4.9,10.5,64,0.00,,,0.74,VWS V14.01,2013-02-26 19:15:00,
2013-02-26 14:19:00,49.2,37.6,29.59,South,180,8.1,11.2,64,0.00,,,0.74,VWS V14.01,2013-02-26 19:19:00,
2013-02-26 14:24:00,48.7,37.8,29.59,SE,135,4.0,12.3,66,0.00,,,0.74,VWS V14.01,2013-02-26 19:24:00,
2013-02-26 14:29:00,48.3,37.1,29.59,SE,135,7.8,15.2,65,0.00,,,0.74,VWS V14.01,2013-02-26 19:29:00,
2013-02-26 14:30:00,48.3,37.5,29.59,SE,135,4.5,15.2,66,0.00,,,0.74,VWS V14.01,2013-02-26 19:30:00,
2013-02-26 14:34:00,48.0,37.5,29.59,SSE,158,6.0,8.5,67,0.00,,,0.74,VWS V14.01,2013-02-26 19:34:00,
2013-02-26 14:39:00,47.6,37.9,29.59,South,180,4.9,9.4,69,0.00,,,0.74,VWS V14.01,2013-02-26 19:39:00,
2013-02-26 14:44:00,47.2,38.0,29.62,ESE,112,3.6,9.4,70,0.00,,,0.74,VWS V14.01,2013-02-26 19:44:00,
2013-02-26 14:45:00,47.2,37.6,29.62,SSW,202,4.0,9.4,69,0.00,,,0.74,VWS V14.01,2013-02-26 19:45:00,
2013-02-26 14:49:00,47.2,37.2,29.62,ESE,112,5.4,8.5,68,0.00,,,0.74,VWS V14.01,2013-02-26 19:49:00,
2013-02-26 14:54:00,47.4,37.4,29.62,ESE,112,3.8,8.5,68,0.00,,,0.74,VWS V14.01,2013-02-26 19:54:00,
2013-02-26 14:59:00,47.4,37.0,29.59,South,180,2.0,8.5,67,0.00,,,0.74,VWS V14.01,2013-02-26 19:59:00,
2013-02-26 15:00:00,47.2,36.8,29.59,South,180,2.0,8.5,67,0.00,,,0.74,VWS V14.01,2013-02-26 20:00:00,
2013-02-26 15:04:00,47.2,36.5,29.59,SE,135,5.8,10.5,66,0.00,,,0.74,VWS V14.01,2013-02-26 20:04:00,
2013-02-26 15:09:00,47.2,36.8,29.59,SSE,158,8.7,10.5,67,0.00,,,0.74,VWS V14.01,2013-02-26 20:09:00,
2013-02-26 15:14:00,47.2,36.8,29.59,ESE,112,7.8,17.0,67,0.00,,,0.74,VWS V14.01,2013-02-26 20:14:00,
2013-02-26 15:15:00,47.2,35.7,29.59,ESE,112,4.3,17.0,64,0.00,,,0.74,VWS V14.01,2013-02-26 20:15:00,
2013-02-26 15:19:00,47.2,35.7,29.59,SSE,158,1.6,9.6,64,0.00,,,0.74,VWS V14.01,2013-02-26 20:19:00,
2013-02-26 15:24:00,47.8,35.8,29.59,SSE,158,11.0,11.4,63,0.00,,,0.74,VWS V14.01,2013-02-26 20:24:00,
2013-02-26 15:29:00,47.6,35.6,29.59,South,180,6.3,11.4,63,0.00,,,0.74,VWS V14.01,2013-02-26 20:29:00,
2013-02-26 15:30:00,47.4,35.1,29.59,SSW,202,6.9,11.4,62,0.00,,,0.74,VWS V14.01,2013-02-26 20:30:00,
2013-02-26 15:34:00,48.0,34.8,29.59,NNW,338,5.4,14.1,60,0.00,,,0.74,VWS V14.01,2013-02-26 20:34:00,
2013-02-26 15:39:00,48.0,35.6,29.59,WSW,248,4.0,14.1,62,0.00,,,0.74,VWS V14.01,2013-02-26 20:39:00,
2013-02-26 15:44:00,47.8,35.0,29.59,South,180,6.0,14.1,61,0.00,,,0.74,VWS V14.01,2013-02-26 20:44:00,
2013-02-26 15:45:00,47.8,35.0,29.59,SW,225,8.5,14.1,61,0.00,,,0.74,VWS V14.01,2013-02-26 20:45:00,
2013-02-26 15:49:00,47.8,35.0,29.59,ENE,68,0.0,8.5,61,0.00,,,0.74,VWS V14.01,2013-02-26 20:49:00,
2013-02-26 15:54:00,48.0,35.2,29.59,SSE,158,3.4,8.5,61,0.00,,,0.74,VWS V14.01,2013-02-26 20:54:00,
2013-02-26 15:59:00,48.0,35.2,29.59,SSW,202,3.1,8.5,61,0.00,,,0.74,VWS V14.01,2013-02-26 20:59:00,
2013-02-26 16:00:00,47.8,34.6,29.59,SSE,158,8.5,9.8,60,0.00,,,0.74,VWS V14.01,2013-02-26 21:00:00,
2013-02-26 16:04:00,48.0,34.8,29.59,SSE,158,6.5,10.3,60,0.00,,,0.74,VWS V14.01,2013-02-26 21:04:00,
2013-02-26 16:09:00,47.8,34.6,29.59,SSE,158,6.5,11.9,60,0.00,,,0.74,VWS V14.01,2013-02-26 21:09:00,
2013-02-26 16:14:00,47.8,34.6,29.59,NE,45,3.6,11.9,60,0.00,,,0.74,VWS V14.01,2013-02-26 21:14:00,
2013-02-26 16:15:00,47.8,34.6,29.59,ENE,68,3.1,11.9,60,0.00,,,0.74,VWS V14.01,2013-02-26 21:15:00,
2013-02-26 16:19:00,47.6,34.8,29.59,SE,135,5.6,5.6,61,0.00,,,0.74,VWS V14.01,2013-02-26 21:19:00,
2013-02-26 16:24:00,47.6,34.8,29.59,South,180,6.9,6.9,61,0.00,,,0.74,VWS V14.01,2013-02-26 21:24:00,
2013-02-26 16:29:00,47.6,35.2,29.59,SSE,158,3.4,6.9,62,0.00,,,0.74,VWS V14.01,2013-02-26 21:29:00,
2013-02-26 16:30:00,47.6,35.2,29.59,East,90,2.0,6.9,62,0.00,,,0.74,VWS V14.01,2013-02-26 21:30:00,
2013-02-26 16:34:00,47.6,35.2,29.59,SE,135,3.4,8.1,62,0.00,,,0.74,VWS V14.01,2013-02-26 21:34:00,
2013-02-26 16:39:00,47.4,35.1,29.59,ENE,68,2.7,8.1,62,0.00,,,0.74,VWS V14.01,2013-02-26 21:39:00,
2013-02-26 16:44:00,47.4,35.5,29.59,SE,135,2.0,8.1,63,0.00,,,0.74,VWS V14.01,2013-02-26 21:44:00,
2013-02-26 16:45:00,47.2,35.3,29.59,WSW,248,1.6,8.1,63,0.00,,,0.74,VWS V14.01,2013-02-26 21:45:00,
2013-02-26 16:49:00,47.0,35.9,29.59,WNW,292,2.0,4.9,65,0.00,,,0.74,VWS V14.01,2013-02-26 21:49:00,
2013-02-26 16:54:00,46.9,35.7,29.59,South,180,3.4,4.9,65,0.00,,,0.74,VWS V14.01,2013-02-26 21:54:00,
2013-02-26 16:59:00,46.7,36.0,29.59,NNW,338,1.3,5.6,66,0.00,,,0.74,VWS V14.01,2013-02-26 21:59:00,
2013-02-26 17:00:00,46.7,36.0,29.59,NNW,338,1.6,5.6,66,0.00,,,0.74,VWS V14.01,2013-02-26 22:00:00,
2013-02-26 17:04:00,46.5,35.4,29.59,WNW,292,2.0,4.3,65,0.00,,,0.74,VWS V14.01,2013-02-26 22:04:00,
2013-02-26 17:09:00,46.5,35.8,29.59,NW,315,1.3,4.9,66,0.00,,,0.74,VWS V14.01,2013-02-26 22:09:00,
2013-02-26 17:14:00,46.5,35.8,29.62,SE,135,3.4,4.9,66,0.00,,,0.74,VWS V14.01,2013-02-26 22:14:00,
2013-02-26 17:15:00,46.5,35.8,29.62,SE,135,5.6,6.0,66,0.00,,,0.74,VWS V14.01,2013-02-26 22:15:00,
2013-02-26 17:19:00,46.3,36.0,29.62,SE,135,2.2,5.6,67,0.00,,,0.74,VWS V14.01,2013-02-26 22:19:00,
2013-02-26 17:24:00,46.2,35.8,29.62,WSW,248,2.2,5.6,67,0.00,,,0.74,VWS V14.01,2013-02-26 22:24:00,
2013-02-26 17:29:00,46.0,37.1,29.62,South,180,0.0,5.6,71,0.00,,,0.74,VWS V14.01,2013-02-26 22:29:00,
2013-02-26 17:30:00,46.0,37.1,29.62,South,180,0.0,5.6,71,0.00,,,0.74,VWS V14.01,2013-02-26 22:30:00,
2013-02-26 17:34:00,45.6,39.2,29.62,NW,315,2.0,3.1,78,0.00,,,0.74,VWS V14.01,2013-02-26 22:34:00,
2013-02-26 17:39:00,45.2,39.8,29.62,West,270,0.0,3.1,81,0.00,,,0.74,VWS V14.01,2013-02-26 22:39:00,
2013-02-26 17:44:00,44.7,39.9,29.62,SE,135,2.0,3.1,83,0.00,,,0.74,VWS V14.01,2013-02-26 22:44:00,
2013-02-26 17:45:00,44.5,39.7,29.62,South,180,1.6,3.1,83,0.00,,,0.74,VWS V14.01,2013-02-26 22:45:00,
2013-02-26 17:49:00,44.5,38.4,29.62,WSW,248,2.5,5.8,79,0.00,,,0.74,VWS V14.01,2013-02-26 22:49:00,
2013-02-26 17:54:00,44.3,38.6,29.62,SSE,158,2.2,5.8,80,0.00,,,0.74,VWS V14.01,2013-02-26 22:54:00,
2013-02-26 17:59:00,44.2,37.4,29.62,WNW,292,1.6,5.8,77,0.00,,,0.74,VWS V14.01,2013-02-26 22:59:00,
2013-02-26 18:00:00,44.2,37.4,29.62,WNW,292,2.5,5.8,77,0.00,,,0.74,VWS V14.01,2013-02-26 23:00:00,
2013-02-26 18:04:00,44.3,37.3,29.62,NNE,22,1.3,6.3,76,0.00,,,0.74,VWS V14.01,2013-02-26 23:04:00,
2013-02-26 18:09:00,44.2,36.4,29.62,NNE,22,2.0,6.3,74,0.00,,,0.74,VWS V14.01,2013-02-26 23:09:00,
2013-02-26 18:14:00,44.3,35.2,29.65,ESE,112,3.4,6.3,70,0.00,,,0.74,VWS V14.01,2013-02-26 23:14:00,
2013-02-26 18:15:00,44.5,33.1,29.68,WNW,292,0.0,7.2,64,0.00,,,0.74,VWS V14.01,2013-02-26 23:15:00,
2013-02-26 18:19:00,44.3,35.2,29.65,South,180,1.3,6.3,70,0.00,,,0.74,VWS V14.01,2013-02-26 23:19:00,
2013-02-26 18:24:00,44.3,34.8,29.65,ENE,68,0.9,6.3,69,0.00,,,0.74,VWS V14.01,2013-02-26 23:24:00,
2013-02-26 18:29:00,44.3,35.2,29.65,SE,135,1.6,6.3,70,0.00,,,0.74,VWS V14.01,2013-02-26 23:29:00,
2013-02-26 18:30:00,44.3,35.2,29.65,South,180,2.2,6.3,70,0.00,,,0.74,VWS V14.01,2013-02-26 23:30:00,
2013-02-26 18:34:00,44.2,35.0,29.65,NNW,338,0.0,3.1,70,0.00,,,0.74,VWS V14.01,2013-02-26 23:34:00,
2013-02-26 18:39:00,44.3,34.5,29.65,SSE,158,0.0,4.0,68,0.00,,,0.74,VWS V14.01,2013-02-26 23:39:00,
2013-02-26 18:44:00,44.3,33.7,29.68,SSW,202,1.1,4.0,66,0.00,,,0.74,VWS V14.01,2013-02-26 23:44:00,
2013-02-26 18:45:00,44.3,33.7,29.68,SSW,202,2.2,4.0,66,0.00,,,0.74,VWS V14.01,2013-02-26 23:45:00,
2013-02-26 18:49:00,44.5,33.1,29.68,ESE,112,1.1,2.5,64,0.00,,,0.74,VWS V14.01,2013-02-26 23:49:00,
2013-02-26 18:54:00,44.5,33.5,29.68,NE,45,1.3,2.5,65,0.00,,,0.74,VWS V14.01,2013-02-26 23:54:00,
2013-02-26 18:59:00,44.5,33.1,29.68,SSE,158,2.9,3.4,64,0.00,,,0.74,VWS V14.01,2013-02-26 23:59:00,
2013-02-26 19:00:00,44.5,33.1,29.68,SSE,158,3.6,3.8,64,0.00,,,0.74,VWS V14.01,2013-02-27 00:00:00,
2013-02-26 19:04:00,44.5,33.1,29.68,NNW,338,2.0,3.6,64,0.00,,,0.74,VWS V14.01,2013-02-27 00:04:00,
2013-02-26 19:09:00,44.5,33.1,29.68,WNW,292,0.9,7.2,64,0.00,,,0.74,VWS V14.01,2013-02-27 00:09:00,
2013-02-26 19:14:00,44.5,33.1,29.68,WNW,292,0.9,7.2,64,0.00,,,0.74,VWS V14.01,2013-02-27 00:14:00,
2013-02-26 19:15:00,44.5,33.1,29.68,WNW,292,0.0,7.2,64,0.00,,,0.74,VWS V14.01,2013-02-27 00:15:00,
2013-02-26 19:19:00,44.3,33.0,29.68,NNW,338,1.3,2.9,64,0.00,,,0.74,VWS V14.01,2013-02-27 00:19:00,
2013-02-26 19:24:00,44.3,32.2,29.68,South,180,3.4,3.8,62,0.00,,,0.74,VWS V14.01,2013-02-27 00:24:00,
2013-02-26 19:29:00,44.3,31.4,29.68,East,90,4.0,5.8,60,0.00,,,0.74,VWS V14.01,2013-02-27 00:29:00,
2013-02-26 19:30:00,44.3,31.4,29.68,NNW,338,3.8,5.8,60,0.00,,,0.74,VWS V14.01,2013-02-27 00:30:00,
2013-02-26 19:34:00,44.3,31.8,29.68,ESE,112,2.0,3.8,61,0.00,,,0.74,VWS V14.01,2013-02-27 00:34:00,
2013-02-26 19:39:00,44.2,31.2,29.68,NNW,338,1.1,3.8,60,0.00,,,0.74,VWS V14.01,2013-02-27 00:39:00,
2013-02-26 19:44:00,44.0,31.0,29.68,East,90,2.7,3.8,60,0.00,,,0.74,VWS V14.01,2013-02-27 00:44:00,
2013-02-26 19:45:00,44.0,31.0,29.68,WSW,248,3.4,3.8,60,0.00,,,0.74,VWS V14.01,2013-02-27 00:45:00,
2013-02-26 19:49:00,44.0,30.6,29.68,South,180,8.7,8.7,59,0.00,,,0.74,VWS V14.01,2013-02-27 00:49:00,
2013-02-26 19:54:00,43.8,30.4,29.68,NE,45,2.9,8.7,59,0.00,,,0.74,VWS V14.01,2013-02-27 00:54:00,
2013-02-26 19:59:00,43.6,30.3,29.65,South,180,2.7,8.7,59,0.00,,,0.74,VWS V14.01,2013-02-27 00:59:00,
2013-02-26 20:00:00,43.6,30.3,29.65,SW,225,5.8,8.7,59,0.00,,,0.74,VWS V14.01,2013-02-27 01:00:00,
2013-02-26 20:04:00,43.5,30.5,29.65,South,180,4.0,5.8,60,0.00,,,0.74,VWS V14.01,2013-02-27 01:04:00,
2013-02-26 20:09:00,43.3,30.3,29.65,ENE,68,2.2,5.8,60,0.00,,,0.74,VWS V14.01,2013-02-27 01:09:00,
2013-02-26 20:14:00,43.3,29.9,29.68,North,0,3.4,6.0,59,0.00,,,0.74,VWS V14.01,2013-02-27 01:14:00,
2013-02-26 20:15:00,43.3,29.9,29.68,North,0,3.8,6.0,59,0.00,,,0.74,VWS V14.01,2013-02-27 01:15:00,
2013-02-26 20:19:00,43.1,29.8,29.68,NNW,338,1.3,3.8,59,0.00,,,0.74,VWS V14.01,2013-02-27 01:19:00,
2013-02-26 20:24:00,42.9,30.0,29.68,WSW,248,0.0,3.8,60,0.00,,,0.74,VWS V14.01,2013-02-27 01:24:00,
2013-02-26 20:29:00,42.9,30.0,29.71,WNW,292,1.1,3.8,60,0.00,,,0.74,VWS V14.01,2013-02-27 01:29:00,
2013-02-26 20:30:00,42.9,30.0,29.71,NNW,338,2.7,3.8,60,0.00,,,0.74,VWS V14.01,2013-02-27 01:30:00,
2013-02-26 20:34:00,42.7,30.2,29.71,NNE,22,0.0,2.7,61,0.00,,,0.74,VWS V14.01,2013-02-27 01:34:00,
2013-02-26 20:39:00,42.7,30.2,29.71,WSW,248,0.0,3.1,61,0.00,,,0.74,VWS V14.01,2013-02-27 01:39:00,
2013-02-26 20:44:00,42.4,29.9,29.71,WNW,292,2.5,3.1,61,0.00,,,0.74,VWS V14.01,2013-02-27 01:44:00,
2013-02-26 20:45:00,42.4,29.9,29.71,WNW,292,2.2,3.1,61,0.00,,,0.74,VWS V14.01,2013-02-27 01:45:00,
2013-02-26 20:49:00,42.2,29.3,29.71,WSW,248,1.3,3.4,60,0.00,,,0.74,VWS V14.01,2013-02-27 01:49:00,
2013-02-26 20:54:00,42.2,29.3,29.71,NNE,22,1.6,3.4,60,0.00,,,0.74,VWS V14.01,2013-02-27 01:54:00,
2013-02-26 20:59:00,41.8,29.4,29.71,WNW,292,2.5,3.4,61,0.00,,,0.74,VWS V14.01,2013-02-27 01:59:00,
2013-02-26 21:00:00,41.8,29.4,29.71,West,270,2.5,3.4,61,0.00,,,0.74,VWS V14.01,2013-02-27 02:00:00,
2013-02-26 21:04:00,41.7,29.2,29.71,WNW,292,0.0,3.8,61,0.00,,,0.74,VWS V14.01,2013-02-27 02:04:00,
2013-02-26 21:09:00,41.5,28.2,29.71,WNW,292,1.1,7.8,59,0.00,,,0.74,VWS V14.01,2013-02-27 02:09:00,
2013-02-26 21:14:00,41.3,28.1,29.74,SE,135,3.8,7.8,59,0.00,,,0.74,VWS V14.01,2013-02-27 02:14:00,
2013-02-26 21:15:00,41.3,28.1,29.74,ESE,112,3.4,7.8,59,0.00,,,0.74,VWS V14.01,2013-02-27 02:15:00,
2013-02-26 21:19:00,41.1,28.3,29.74,West,270,1.1,5.4,60,0.00,,,0.74,VWS V14.01,2013-02-27 02:19:00,
2013-02-26 21:25:00,41.1,27.9,29.74,WNW,292,3.4,9.6,59,0.00,,,0.74,VWS V14.01,2013-02-27 02:25:00,
2013-02-26 21:30:00,40.9,27.7,29.71,SSE,158,1.6,9.6,59,0.00,,,0.74,VWS V14.01,2013-02-27 02:30:00,
2013-02-26 21:35:00,40.9,28.1,29.71,WNW,292,2.0,2.2,60,0.00,,,0.74,VWS V14.01,2013-02-27 02:35:00,
2013-02-26 21:40:00,40.9,28.1,29.71,WSW,248,0.0,4.7,60,0.00,,,0.74,VWS V14.01,2013-02-27 02:40:00,
2013-02-26 21:45:00,40.8,28.0,29.71,SSE,158,2.0,4.7,60,0.00,,,0.74,VWS V14.01,2013-02-27 02:45:00,
2013-02-26 21:50:00,40.8,27.5,29.71,WSW,248,2.0,2.7,59,0.00,,,0.74,VWS V14.01,2013-02-27 02:50:00,
2013-02-26 21:55:00,40.8,28.4,29.71,NNE,22,2.0,2.7,61,0.00,,,0.74,VWS V14.01,2013-02-27 02:55:00,
2013-02-26 22:00:00,40.8,27.5,29.74,WSW,248,0.0,2.7,59,0.00,,,0.74,VWS V14.01,2013-02-27 03:00:00,
2013-02-26 22:04:00,40.6,27.8,29.74,NW,315,1.3,2.2,60,0.00,,,0.74,VWS V14.01,2013-02-27 03:04:00,
2013-02-26 22:09:00,40.6,28.2,29.74,SSW,202,1.3,2.2,61,0.00,,,0.74,VWS V14.01,2013-02-27 03:09:00,
2013-02-26 22:14:00,40.4,28.8,29.71,WNW,292,2.7,3.6,63,0.00,,,0.74,VWS V14.01,2013-02-27 03:14:00,
2013-02-26 22:15:00,40.4,28.8,29.71,WNW,292,2.7,3.6,63,0.00,,,0.74,VWS V14.01,2013-02-27 03:15:00,
2013-02-26 22:20:00,40.4,29.2,29.71,NNW,338,0.0,3.4,64,0.00,,,0.74,VWS V14.01,2013-02-27 03:20:00,
2013-02-26 22:25:00,40.2,29.0,29.71,NNE,22,2.5,3.6,64,0.00,,,0.74,VWS V14.01,2013-02-27 03:25:00,
2013-02-26 22:30:00,40.0,28.9,29.74,SSW,202,3.4,4.7,64,0.00,,,0.74,VWS V14.01,2013-02-27 03:30:00,
2013-02-26 22:35:00,39.8,29.1,29.74,NNW,338,1.6,5.8,65,0.00,,,0.74,VWS V14.01,2013-02-27 03:35:00,
2013-02-26 22:40:00,39.7,28.9,29.74,NW,315,9.0,9.0,65,0.00,,,0.74,VWS V14.01,2013-02-27 03:40:00,
2013-02-26 22:45:00,39.7,28.9,29.74,West,270,3.1,9.0,65,0.00,,,0.74,VWS V14.01,2013-02-27 03:45:00,
2013-02-26 22:49:00,39.5,28.3,29.74,SSE,158,3.6,9.0,64,0.00,,,0.74,VWS V14.01,2013-02-27 03:49:00,
2013-02-26 22:54:00,39.5,28.7,29.74,NNW,338,2.2,9.0,65,0.00,,,0.74,VWS V14.01,2013-02-27 03:54:00,
2013-02-26 22:59:00,39.5,29.1,29.74,NNE,22,2.0,9.0,66,0.00,,,0.74,VWS V14.01,2013-02-27 03:59:00,
2013-02-26 23:00:00,39.5,29.1,29.74,NNE,22,2.0,9.0,66,0.00,,,0.74,VWS V14.01,2013-02-27 04:00:00,
2013-02-26 23:04:00,39.1,28.8,29.74,NNW,338,3.6,5.4,66,0.00,,,0.74,VWS V14.01,2013-02-27 04:04:00,
2013-02-26 23:09:00,39.3,28.9,29.74,SSW,202,1.6,5.4,66,0.00,,,0.74,VWS V14.01,2013-02-27 04:09:00,
2013-02-26 23:14:00,39.1,29.1,29.74,WNW,292,1.6,5.4,67,0.00,,,0.74,VWS V14.01,2013-02-27 04:14:00,
2013-02-26 23:15:00,37.5,33.4,29.74,West,270,0.0,7.2,85,0.00,,,0.00,VWS V14.01,2013-02-27 04:15:00,
2013-02-26 23:19:00,39.0,29.3,29.74,NNW,338,3.4,6.3,68,0.00,,,0.74,VWS V14.01,2013-02-27 04:19:00,
2013-02-26 23:24:00,39.0,29.3,29.74,WNW,292,1.1,6.3,68,0.00,,,0.74,VWS V14.01,2013-02-27 04:24:00,
2013-02-26 23:29:00,39.0,29.7,29.76,NNW,338,0.0,6.3,69,0.00,,,0.74,VWS V14.01,2013-02-27 04:29:00,
2013-02-26 23:30:00,39.0,29.7,29.76,NNW,338,0.0,6.3,69,0.00,,,0.74,VWS V14.01,2013-02-27 04:30:00,
2013-02-26 23:34:00,38.6,29.7,29.76,West,270,2.7,5.4,70,0.00,,,0.74,VWS V14.01,2013-02-27 04:34:00,
2013-02-26 23:39:00,38.6,30.0,29.76,SSW,202,0.0,5.4,71,0.00,,,0.74,VWS V14.01,2013-02-27 04:39:00,
2013-02-26 23:44:00,38.4,30.2,29.76,SSW,202,2.0,5.4,72,0.00,,,0.74,VWS V14.01,2013-02-27 04:44:00,
2013-02-26 23:45:00,38.4,30.2,29.76,SSW,202,2.0,5.4,72,0.00,,,0.74,VWS V14.01,2013-02-27 04:45:00,
2013-02-26 23:49:00,38.2,30.7,29.76,ENE,68,2.7,3.6,74,0.00,,,0.74,VWS V14.01,2013-02-27 04:49:00,
2013-02-26 23:54:00,38.2,31.7,29.76,NNW,338,2.0,6.3,77,0.00,,,0.74,VWS V14.01,2013-02-27 04:54:00,
2013-02-26 23:59:00,37.9,32.0,29.74,NNE,22,3.4,6.3,79,0.00,,,0.74,VWS V14.01,2013-02-27 04:59:00,